Hundvaag 1 weather for Sep 2000
Month no. 159
Obs.
Da.
Temp. Dew Point Precip. Wind
Speed
Wind gusts Cloud cover Press. Humidity Wind dir. Sunny OPT
01.09.2000 9,1   0,0     5 1013,1     1  
02.09.2000 13,9   0,0     2 1009,6     1  
03.09.2000 13,3   0,0     10 1013,6     1  
04.09.2000 8,1   0,0     10 1016,0     1  
05.09.2000 11,1   0,0     0 1016,9     1  
06.09.2000 12,3   4,5     0 1011,9        
07.09.2000 12,4   19,3     0 1010,3        
08.09.2000 12,1   7,1     0 1010,5     1  
09.09.2000 13,7   0,4     7 1013,7     1  
10.09.2000 14,1   1,4     6 1017,1     1  
11.09.2000 9,4   0,1     10 1018,7     1  
12.09.2000 9,2   0,0     2 1016,3     1  
13.09.2000 12,1   0,0     0 1014,8     1  
14.09.2000 12,3   0,0     1 1016,0        
15.09.2000 13,4   4,4     0 1015,9        
16.09.2000 13,7   0,9     0 1014,1        
17.09.2000 13,1   1,9     0 1013,7        
18.09.2000 14,3   1,9     1 1010,0        
19.09.2000 13,6   12,9     1 1011,7     1  
20.09.2000 11,4   0,0     8 1015,6     1  
21.09.2000 13,5   0,0     1 1018,1        
22.09.2000 14,1   0,0     2 1019,7     1  
23.09.2000 14,5   0,0     0 1021,7     1  
24.09.2000 12,5   0,0     10 1022,5     1  
25.09.2000 8,5   0,0     10 1022,0     1  
26.09.2000 8,3   0,0     6 1021,5     1  
27.09.2000 12,5   0,1     0 1016,1        
28.09.2000 13,1   5,5     0 1008,1        
29.09.2000 13,1   14,1     0 1008,8        
30.09.2000 15,1   0,1     10 1011,5     1  
                       
Avrg/Sum 12,3   74,6     3,4 1015,0     19